• Join FlightAware (Why Join?)
  • Login
  • US Flag GB Flag 
04:21 EDT


 

Airport Tracker/Info


-or-


 

Live Flight TrackerFlight Track Log ✈ AWI3970 ✈ 12-May-2013 ✈ KPHL - KALB

Flight Track Log - Related Links

Times and Time Zones

All times are in EDT time to prevent confusion due to time zone crossing. See the AWI3970 flight status page for this flight to view local times or setup timezone preferences in your user account.

Time Position Orientation Groundspeed Altitude Reporting Facility
EDT Latitude Longitude Course Direction KTS MPH feet Rate Location/Type
23:01 39.8667 -75.2667 37° Northeast 166 191 800  Level Philadelphia TRACON
23:02 39.8333 -75.3167 229° Southwest 202 232 3,500 3,060 Climbing Philadelphia TRACON
23:03 39.7833 -75.3667 218° Southwest 245 282 6,700 3,240 Climbing Philadelphia TRACON
23:04 39.8167 -74.8809 90° East  Level FlightAware Approximate
23:04 39.7500 -75.2833 117° Southeast 315 362 9,700  Level Philadelphia TRACON
23:05 39.7956 -74.7612 105° East  Level FlightAware Approximate
23:05 39.7500 -75.1500 90° East 377 434 11,400  Level Philadelphia TRACON
23:06 39.8199 -74.6635 37° Northeast  Level FlightAware Approximate
23:07 39.8950 -74.5884 37° Northeast  Level FlightAware Approximate
23:08 39.7781 -74.8578 83° East 406 467 12,100  Level New York Center
23:09 39.8081 -74.7136 75° East 406 467 12,800 1,320 Climbing New York Center
23:10 39.8922 -74.6208 40° Northeast 376 433 14,800 1,980 Climbing New York Center
23:11 39.9847 -74.5311 37° Northeast 390 449 16,800 1,800 Climbing New York Center
23:12 40.0903 -74.4256 37° Northeast 418 481 18,400 1,560 Climbing New York Center
23:13 40.1806 -74.3353 37° Northeast 435 501 20,000 1,380 Climbing New York Center
23:14 40.3564 -74.2347 24° Northeast 460 529 21,900 1,140 Climbing Boston Center
23:15 40.4817 -74.2136 North 448 516 22,900 840 Climbing Boston Center
23:16 40.6092 -74.1922 North 448 516 23,600 480 Climbing Boston Center
23:17 40.7386 -74.1739 North 453 521 23,900 180 Climbing Boston Center
23:18 40.8619 -74.1525 North 453 521 24,000  Climbing Boston Center
23:19 40.9853 -74.1283 North 453 521 24,000  Level Boston Center
23:20 41.1064 -74.1067 North 447 514 24,000  Level Boston Center
23:21 41.2297 -74.0822 North 447 514 24,000  Level Boston Center
23:22 41.3467 -74.0603 North 442 509 24,000 -660 Level Boston Center
23:23 41.4700 -74.0386 North 442 509 22,700 -1,500 Descending Boston Center
23:24 41.5892 -74.0194 North 437 503 21,100 -1,740 Descending Boston Center
23:25 41.7019 -73.9972 North 425 489 19,300 -1,920 Descending Boston Center
23:26 41.8086 -73.9775 North 390 449 17,300 -2,040 Descending Boston Center
23:27 41.9192 -73.9578 North 377 434 15,300 -1,860 Descending Boston Center
23:28 41.9608 -73.9533 North 349 402 14,600 -1,740 Descending Boston Center
23:28 42.0028 -73.9431 10° North 342 394 13,600 -1,800 Descending Boston Center
23:29 42.0989 -73.9286 North 323 372 11,900 -1,320 Descending Boston Center
23:30 42.1886 -73.9111 North 329 379 11,000 -840 Descending Boston Center
23:31 42.2639 -73.8933 10° North 308 354 10,300 -1,440 Descending Boston Center
23:32 42.3497 -73.8783 North 289 333 8,200 -2,340 Descending Boston Center
23:33 42.4269 -73.8633 North 284 327 5,700 -2,340 Descending Boston Center
23:34 42.5000 -73.8425 12° North 274 315 3,600 -1,380 Descending Boston Center
23:35 42.5589 -73.8128 20° North 240 276 3,000 -840 Descending Boston Center
23:36 42.6089 -73.7997 11° North 206 237 2,000 -1,020 Descending Boston Center